Flight Track Log - Related Links

Times and Time Zones

All times are in EDT time to prevent confusion due to time zone crossing. See the LXJ535 flight status page for this flight to view local times or setup timezone preferences in your user account.

Time Position Orientation Groundspeed Altitude Reporting Facility
EDT Latitude Longitude Course Direction KTS MPH feet Rate Location/Type
Mon 10:14:10 AM 32.8333 -96.8333 140° Southeast 158 182 1,600  Level Dallas / Fort Worth TRACON
Mon 10:14:58 AM 32.8000 -96.8000 140° Southeast 231 266 4,400 3,444 Climbing Dallas / Fort Worth TRACON
Mon 10:15:58 AM 32.7500 -96.7667 151° Southeast 289 333 7,800 2,171 Climbing Dallas / Fort Worth TRACON
Mon 10:18:17 AM 32.5461 -96.8467 198° South 339 390 11,600 2,020 Climbing Fort Worth Center
Mon 10:19:17 AM 32.4586 -96.8767 196° South 359 413 14,500 3,100 Climbing Fort Worth Center
Mon 10:20:17 AM 32.3481 -96.8847 184° South 364 419 17,800 3,000 Climbing Fort Worth Center
Mon 10:21:17 AM 32.2561 -96.8753 175° South 369 425 20,500 2,700 Climbing Fort Worth Center
Mon 10:22:17 AM 32.1411 -96.8686 177° South 369 425 23,200 2,000 Climbing Fort Worth Center
Mon 10:23:17 AM 32.0325 -96.8572 175° South 381 438 24,500 900 Climbing Fort Worth Center
Mon 10:24:17 AM 31.9239 -96.8528 178° South 409 471 25,000 250 Climbing Fort Worth Center
Mon 10:25:17 AM 31.8028 -96.8439 176° South 436 502 25,000  Level Fort Worth Center
Mon 10:26:17 AM 31.6797 -96.8372 177° South 447 514 25,000  Level Fort Worth Center
Mon 10:27:42 AM 31.4939 -96.8028 171° South 447 514 25,000  Level Houston Center
Mon 10:28:44 AM 31.3683 -96.7825 172° South 448 516 25,000  Level Houston Center
Mon 10:29:46 AM 31.2431 -96.7633 173° South 448 516 25,000  Level Houston Center
Mon 10:30:48 AM 31.1178 -96.7431 172° South 448 516 25,000  Level Houston Center
Mon 10:31:50 AM 30.9950 -96.7233 172° South 440 506 25,000  Level Houston Center
Mon 10:32:52 AM 30.8822 -96.7058 172° South 409 471 25,000  Level Houston Center
Mon 10:33:54 AM 30.7761 -96.6892 172° South 384 442 25,000 -919 Level Houston Center
Mon 10:34:56 AM 30.6683 -96.6719 172° South 384 442 23,100 -1,984 Descending Houston Center
Mon 10:35:58 AM 30.5856 -96.5997 143° Southeast 364 419 20,900 -2,226 Descending Houston Center
Mon 10:37:00 AM 30.4994 -96.5114 139° Southeast 350 403 18,500 -1,935 Descending Houston Center
Mon 10:38:02 AM 30.4303 -96.4378 137° Southeast 336 387 16,900 -1,667 Descending Houston Center
Mon 10:38:48 AM 30.3781 -96.3847 139° Southeast 327 376 15,500 -1,735 Descending Houston Center
Mon 10:39:25 AM 30.3369 -96.3433 139° Southeast 319 367 14,500 -1,615 Descending Houston Center
Mon 10:40:06 AM 30.2961 -96.2975 136° Southeast 321 369 13,400 -1,731 Descending Houston Center
Mon 10:41:09 AM 30.2253 -96.2264 139° Southeast 331 381 11,500 -1,152 Descending Houston Center
Mon 10:42:11 AM 30.1439 -96.1739 151° Southeast 331 381 11,000 -216 Descending Houston Center
Mon 10:43:28 AM 30.0256 -96.1103 155° Southeast 329 379 11,000 -48 Level Houston Center
Mon 10:44:15 AM 29.9814 -96.0861 155° Southeast 322 371 10,900 -991 Descending Houston Center
Mon 10:45:17 AM 29.9031 -96.0450 156° South 264 304 9,200 -1,500 Descending Houston Center
Mon 10:46:19 AM 29.8328 -96.0078 155° Southeast 274 315 7,800 -1,065 Descending Houston Center
Mon 10:47:21 AM 29.7711 -95.9739 154° Southeast 270 311 7,000 -387 Descending Houston Center
Mon 10:48:23 AM 29.7172 -95.8903 127° Southeast 274 315 7,000  Level Houston Center
Mon 10:49:25 AM 29.6736 -95.8189 125° Southeast 274 315 7,000  Level Houston Center
Mon 10:50:27 AM 29.6308 -95.7481 125° Southeast 273 314 7,000 -339 Level Houston Center
Mon 10:51:29 AM 29.5858 -95.6792 127° Southeast 271 312 6,300 -484 Descending Houston Center
Mon 10:52:31 AM 29.5317 -95.6203 137° Southeast 270 311 6,000 -97 Descending Houston Center
Mon 10:53:33 AM 29.4800 -95.5608 135° Southeast 266 306 6,100  Climbing Houston Center
Mon 10:54:34 AM 29.4328 -95.4950 129° Southeast 230 265 6,000 -49 Descending Houston Center
Mon 10:55:36 AM 29.3931 -95.4406 130° Southeast 225 259 6,000 48 Level Houston Center
Mon 10:56:38 AM 29.3619 -95.3819 121° Southeast 225 259 6,100  Climbing Houston Center
Mon 10:57:41 AM 29.3644 -95.3064 88° East 239 275 6,000 -48 Descending Houston Center
Mon 10:58:43 AM 29.3625 -95.2300 92° East 243 280 6,000  Level Houston Center
Mon 10:59:43 AM 29.3633 -95.1422 89° East 228 262 6,000 50 Level Houston Center
Mon 11:00:44 AM 29.3697 -95.0767 84° East 186 214 6,100 49 Climbing Houston Center
Mon 11:01:45 AM 29.4125 -95.0378 38° Northeast 198 228 6,100 -49 Level Houston Center
Mon 11:02:46 AM 29.4611 -95.0631 336° Northwest 202 232 6,000 -49 Descending Houston Center
Mon 11:03:47 AM 29.4925 -95.0400 33° Northeast 185 213 6,000 49 Level Houston Center
Mon 11:04:48 AM 29.4606 -94.9911 127° Southeast 184 212 6,100  Climbing Houston Center
Mon 11:05:49 AM 29.4269 -94.9472 131° Southeast 188 216 6,000  Descending Houston Center
Mon 11:06:50 AM 29.3889 -94.9014 134° Southeast 195 224 6,100  Climbing Houston Center
Mon 11:07:51 AM 29.3658 -94.9453 239° Southwest 203 234 6,000 -47 Descending Houston Center
Mon 11:08:58 AM 29.4092 -95.0022 311° West 210 242 6,000  Level Houston Center
Mon 11:10:05 AM 29.4461 -95.0433 316° Northwest 210 242 6,000 -558 Level Houston Center
Mon 11:11:07 AM 29.5011 -95.0872 325° Northwest 232 267 4,800 -1,034 Descending Houston Center
Mon 11:12:01 AM 29.5033 -95.1561 272° West 217 250 4,000 -678 Descending Houston Center
Mon 11:13:02 AM 29.4567 -95.1739 198° South 229 264 3,500 -492 Descending Houston Center
Mon 11:14:03 AM 29.4825 -95.1131 64° Northeast 268 308 3,000 -732 Descending Houston Center
Mon 11:15:05 AM 29.5386 -95.1519 329° Northwest 233 268 2,000 -578 Descending Houston Center
Mon 11:16:18 AM 29.5761 -95.1992 312° West 205 236 1,700 -545 Descending Houston Center
Mon 11:17:06 AM 29.6050 -95.2328 315° West 131 151 900 -764 Descending Houston Center
Mon 11:18:08 AM 29.6306 -95.2608 316° Northwest 122 140 300 -581 Descending Houston Center

Login

Don't have an account? Register now (free) for customized features, flight alerts, and more!